Maple Falls, Washington
Current Conditions -  °F | °C
As of 12:16 PM on Thursday 20 Nov 2014 (Local Time) from CYXX Reporting Station
Light Rain Light Rain  
Wind Chill: 45°   Ceiling: 2200
Heat Index: 45°   Visibility: 10mi
Dew Point: 45°   Wind: 3mph
Humidity: 100%   Direction: 20°NNE
Pressure: 29.95"   Gusts: NA
Location:  48.92°N, 122.08°W
Report Text: CYXX 202016Z 02003KT 10SM -RA FEW010 FEW018 OVC022 07/07 A2995 RMK SF1SF1SC6 SLP142
Loading
Personal Weather Stations






























Interactive Weather Map New forecast layout! Learn more

10-Day Weather Forecast

Advertisements
Track Severe Weather on mobile